createdAt,value
2022-12-27T00:01:55.774Z,10.20
2022-12-27T00:04:25.645Z,10.20
2022-12-27T00:06:54.236Z,10.20
2022-12-27T00:09:22.902Z,10.20
2022-12-27T00:11:56.363Z,9.90
2022-12-27T00:14:30.477Z,10.00
2022-12-27T00:16:59.050Z,10.00
2022-12-27T00:19:27.598Z,10.00
2022-12-27T00:21:56.400Z,10.10
2022-12-27T00:24:24.960Z,10.00
2022-12-27T00:26:53.466Z,10.20
2022-12-27T00:29:23.063Z,10.20
2022-12-27T00:31:53.574Z,10.20
2022-12-27T00:34:22.176Z,10.00
2022-12-27T00:36:50.707Z,9.90
2022-12-27T00:39:19.324Z,9.90
2022-12-27T00:41:47.853Z,9.90
2022-12-27T00:44:16.598Z,10.00
2022-12-27T00:46:45.088Z,9.90
2022-12-27T00:49:15.056Z,9.90
2022-12-27T00:51:43.611Z,9.90
2022-12-27T00:54:12.105Z,9.80
2022-12-27T00:56:40.693Z,10.00
2022-12-27T00:59:12.332Z,9.80
2022-12-27T01:01:42.159Z,9.90
2022-12-27T01:04:15.807Z,10.00
2022-12-27T01:06:44.343Z,9.90
2022-12-27T01:09:12.889Z,10.00
2022-12-27T01:11:42.459Z,9.80
2022-12-27T01:14:11.964Z,9.80
2022-12-27T01:16:41.710Z,9.70
2022-12-27T01:19:10.305Z,9.70
2022-12-27T01:21:40.280Z,9.80
2022-12-27T01:24:09.264Z,9.80
2022-12-27T01:26:37.749Z,9.90
2022-12-27T01:29:07.521Z,10.10
2022-12-27T01:31:36.843Z,10.10
2022-12-27T01:34:05.490Z,10.10
2022-12-27T01:36:34.096Z,10.10
2022-12-27T01:39:04.804Z,10.20
2022-12-27T01:41:52.747Z,10.10
2022-12-27T01:44:53.449Z,10.10
2022-12-27T01:47:35.924Z,10.30
2022-12-27T01:50:13.893Z,10.30
2022-12-27T01:52:47.976Z,10.30
2022-12-27T01:55:23.894Z,10.30
2022-12-27T01:57:55.848Z,10.20
2022-12-27T02:00:24.465Z,10.00
2022-12-27T02:02:53.819Z,10.00
2022-12-27T02:05:25.485Z,10.10
2022-12-27T02:08:06.293Z,10.10
2022-12-27T02:10:36.458Z,10.10
2022-12-27T02:13:06.794Z,10.20
2022-12-27T02:15:35.974Z,10.30
2022-12-27T02:18:04.859Z,10.30
2022-12-27T02:20:57.767Z,10.40
2022-12-27T02:24:04.319Z,10.40
2022-12-27T02:26:43.103Z,10.40
2022-12-27T02:29:46.058Z,10.20
2022-12-27T02:32:19.963Z,10.20
2022-12-27T02:34:58.675Z,10.20
2022-12-27T02:37:30.467Z,10.00
2022-12-27T02:40:21.811Z,10.20
2022-12-27T02:43:14.133Z,10.10
2022-12-27T02:46:06.938Z,10.10
2022-12-27T02:48:52.553Z,10.10
2022-12-27T02:51:58.103Z,10.30
2022-12-27T02:54:45.030Z,10.40
2022-12-27T02:57:23.482Z,10.30
2022-12-27T03:00:23.189Z,10.50
2022-12-27T03:03:25.069Z,10.50
2022-12-27T03:06:42.248Z,10.50
2022-12-27T03:09:51.535Z,10.50
2022-12-27T03:12:47.520Z,10.30
2022-12-27T03:15:48.680Z,10.40
2022-12-27T03:18:22.738Z,10.10
2022-12-27T03:21:09.236Z,10.20
2022-12-27T03:23:57.494Z,9.90
2022-12-27T03:26:29.694Z,9.80
2022-12-27T03:29:17.871Z,9.70
2022-12-27T03:32:08.585Z,9.80
2022-12-27T03:34:42.156Z,9.90
2022-12-27T03:37:32.280Z,9.90
2022-12-27T03:40:09.135Z,9.90
2022-12-27T03:42:58.124Z,9.90
2022-12-27T03:45:45.954Z,9.90
2022-12-27T03:48:19.306Z,9.70
2022-12-27T03:50:55.262Z,9.70
2022-12-27T03:53:29.920Z,9.70
2022-12-27T03:55:59.009Z,9.60
2022-12-27T03:58:27.536Z,9.70
2022-12-27T04:00:56.283Z,9.80
2022-12-27T04:03:24.824Z,9.70
2022-12-27T04:05:54.772Z,9.80
2022-12-27T04:08:40.701Z,9.90
2022-12-27T04:11:26.445Z,9.90
2022-12-27T04:14:12.485Z,10.10
2022-12-27T04:16:58.431Z,9.90
2022-12-27T04:19:44.625Z,10.00
2022-12-27T04:22:32.304Z,10.00
2022-12-27T04:25:18.394Z,10.00
2022-12-27T04:28:04.497Z,10.00
2022-12-27T04:30:51.409Z,10.10
2022-12-27T04:33:37.361Z,10.00
2022-12-27T04:36:06.789Z,10.30
2022-12-27T04:38:36.803Z,10.30
2022-12-27T04:41:22.763Z,10.10
2022-12-27T04:44:08.694Z,10.20
2022-12-27T04:46:54.310Z,10.30
2022-12-27T04:49:50.059Z,10.20
2022-12-27T04:52:38.874Z,10.10
2022-12-27T04:55:17.072Z,10.10
2022-12-27T04:57:45.662Z,10.10
2022-12-27T05:00:33.299Z,10.00
2022-12-27T05:03:03.378Z,9.90
2022-12-27T05:05:32.163Z,9.90
2022-12-27T05:08:21.942Z,9.70
2022-12-27T05:11:09.327Z,9.80
2022-12-27T05:13:55.495Z,9.70
2022-12-27T05:16:24.238Z,9.80
2022-12-27T05:18:54.121Z,9.90
2022-12-27T05:21:22.968Z,9.70
2022-12-27T05:24:09.193Z,9.60
2022-12-27T05:26:39.591Z,9.50
2022-12-27T05:29:09.001Z,12.10
2022-12-27T05:31:37.596Z,9.60
2022-12-27T05:34:06.972Z,9.60
2022-12-27T05:36:35.541Z,9.40
2022-12-27T05:39:04.206Z,9.40
2022-12-27T05:41:32.738Z,9.20
2022-12-27T05:44:07.131Z,9.10
2022-12-27T05:46:36.251Z,9.30
2022-12-27T05:49:05.324Z,9.30
2022-12-27T05:51:33.895Z,9.20
2022-12-27T05:54:02.414Z,9.10
2022-12-27T05:56:30.975Z,9.20
2022-12-27T05:58:59.632Z,9.10
2022-12-27T06:01:31.014Z,8.90
2022-12-27T06:03:59.665Z,8.80
2022-12-27T06:06:28.158Z,8.90
2022-12-27T06:08:56.822Z,8.90
2022-12-27T06:11:26.175Z,8.90
2022-12-27T06:13:55.544Z,9.10
2022-12-27T06:16:25.691Z,9.10
2022-12-27T06:18:55.683Z,9.20
2022-12-27T06:21:24.236Z,9.00
2022-12-27T06:23:52.787Z,8.90
2022-12-27T06:26:22.937Z,8.90
2022-12-27T06:28:51.949Z,9.00
2022-12-27T06:31:21.718Z,9.00
2022-12-27T06:33:51.672Z,9.10
2022-12-27T06:36:23.117Z,9.20
2022-12-27T06:38:51.800Z,9.10
2022-12-27T06:41:20.793Z,9.20
2022-12-27T06:43:50.053Z,9.20
2022-12-27T06:46:19.818Z,9.30
2022-12-27T06:48:48.800Z,9.40
2022-12-27T06:51:19.710Z,9.30
2022-12-27T06:53:50.209Z,9.20
2022-12-27T06:56:20.776Z,9.00
2022-12-27T06:58:50.760Z,8.90
2022-12-27T07:01:21.971Z,9.10
2022-12-27T07:03:51.792Z,9.00
2022-12-27T07:06:21.383Z,8.90
2022-12-27T07:08:52.028Z,8.70
2022-12-27T07:11:22.158Z,8.70
2022-12-27T07:13:52.298Z,8.60
2022-12-27T07:16:22.782Z,8.50
2022-12-27T07:18:51.420Z,8.60
2022-12-27T07:21:22.380Z,8.60
2022-12-27T07:23:52.973Z,8.60
2022-12-27T07:26:24.529Z,8.50
2022-12-27T07:28:55.236Z,8.50
2022-12-27T07:31:26.871Z,8.50
2022-12-27T07:33:55.479Z,8.50
2022-12-27T07:36:26.283Z,8.60
2022-12-27T07:38:56.310Z,8.60
2022-12-27T07:41:25.170Z,8.80
2022-12-27T07:43:55.002Z,9.00
2022-12-27T07:46:25.901Z,9.00
2022-12-27T07:48:56.035Z,9.10
2022-12-27T07:51:25.599Z,9.00
2022-12-27T07:53:55.872Z,9.30
2022-12-27T07:56:26.915Z,9.30
2022-12-27T07:58:57.210Z,9.60
2022-12-27T08:01:27.926Z,9.60
2022-12-27T08:03:57.124Z,9.40
2022-12-27T08:06:29.363Z,9.60
2022-12-27T08:09:00.293Z,9.60
2022-12-27T08:11:30.252Z,9.70
2022-12-27T08:13:58.779Z,9.70
2022-12-27T08:16:28.182Z,9.90
2022-12-27T08:18:58.409Z,9.70
2022-12-27T08:21:28.331Z,9.90
2022-12-27T08:23:58.319Z,10.10
2022-12-27T08:26:26.902Z,10.00
2022-12-27T08:28:55.486Z,10.10
2022-12-27T08:31:24.202Z,10.30
2022-12-27T08:33:58.256Z,10.40
2022-12-27T08:39:17.210Z,10.50
2022-12-27T08:41:45.924Z,10.60
2022-12-27T08:44:14.719Z,10.70
2022-12-27T08:46:43.281Z,11.00
2022-12-27T08:49:11.949Z,10.80
2022-12-27T08:51:41.486Z,11.00
2022-12-27T08:54:10.589Z,11.00
2022-12-27T08:56:40.552Z,10.90
2022-12-27T08:59:09.039Z,11.20
2022-12-27T09:01:37.663Z,11.40
2022-12-27T09:04:06.648Z,11.40
2022-12-27T09:06:35.286Z,11.40
2022-12-27T09:09:03.780Z,11.20
2022-12-27T09:11:34.600Z,11.40
2022-12-27T09:14:06.142Z,11.50
2022-12-27T09:16:35.855Z,11.60
2022-12-27T09:19:05.309Z,11.60
2022-12-27T09:21:35.156Z,11.60
2022-12-27T09:24:03.953Z,11.60
2022-12-27T09:26:32.600Z,11.80
2022-12-27T09:29:01.633Z,11.80
2022-12-27T09:31:31.664Z,11.90
2022-12-27T09:34:00.480Z,12.00
2022-12-27T09:36:31.124Z,12.10
2022-12-27T09:39:00.962Z,12.30
2022-12-27T09:44:39.573Z,12.30
2022-12-27T09:47:14.005Z,12.30
2022-12-27T09:49:46.818Z,12.40
2022-12-27T09:52:19.481Z,12.30
2022-12-27T09:55:04.455Z,12.50
2022-12-27T09:57:38.344Z,12.70
2022-12-27T10:00:16.580Z,12.80
2022-12-27T10:02:46.785Z,13.00
2022-12-27T10:05:23.111Z,13.20
2022-12-27T10:08:02.492Z,13.50
2022-12-27T10:10:42.768Z,13.40
2022-12-27T10:13:21.636Z,13.30
2022-12-27T10:16:00.900Z,13.30
2022-12-27T10:18:43.066Z,13.70
2022-12-27T10:21:20.136Z,13.50
2022-12-27T10:23:54.753Z,13.80
2022-12-27T10:26:23.665Z,14.20
2022-12-27T10:28:57.330Z,14.30
2022-12-27T10:31:26.928Z,14.30
2022-12-27T10:33:57.037Z,14.40
2022-12-27T10:36:27.733Z,14.90
2022-12-27T10:38:56.913Z,15.00
2022-12-27T10:41:34.811Z,14.80
2022-12-27T10:44:03.474Z,14.60
2022-12-27T10:46:34.072Z,14.80
2022-12-27T10:49:20.752Z,14.70
2022-12-27T10:51:51.206Z,14.60
2022-12-27T10:54:24.154Z,14.90
2022-12-27T10:56:52.802Z,15.10
2022-12-27T10:59:23.290Z,15.20
2022-12-27T11:02:15.967Z,15.20
2022-12-27T11:05:00.156Z,15.00
2022-12-27T11:07:33.894Z,15.10
2022-12-27T11:10:16.480Z,15.10
2022-12-27T11:12:58.031Z,15.30
2022-12-27T11:15:27.801Z,15.60
2022-12-27T11:17:58.861Z,15.60
2022-12-27T11:20:31.928Z,15.70
2022-12-27T11:23:03.813Z,15.70
2022-12-27T11:25:33.322Z,15.60
2022-12-27T11:28:03.972Z,15.80
2022-12-27T11:30:35.410Z,15.60
2022-12-27T11:33:07.481Z,16.30
2022-12-27T11:35:48.463Z,16.00
2022-12-27T11:38:24.889Z,16.40
2022-12-27T11:41:01.259Z,16.50
2022-12-27T11:43:36.196Z,16.40
2022-12-27T11:46:09.479Z,16.70
2022-12-27T11:48:43.348Z,16.60
2022-12-27T11:51:47.650Z,16.40
2022-12-27T11:54:30.962Z,16.70
2022-12-27T11:57:10.403Z,16.70
2022-12-27T11:59:54.342Z,16.90
2022-12-27T12:02:53.076Z,17.20
2022-12-27T12:05:58.653Z,17.00
2022-12-27T12:09:11.448Z,17.40
2022-12-27T12:11:57.463Z,17.90
2022-12-27T12:14:51.571Z,17.80
2022-12-27T12:17:47.819Z,17.80
2022-12-27T12:20:39.797Z,17.80
2022-12-27T12:23:13.647Z,17.90
2022-12-27T12:26:07.544Z,18.20
2022-12-27T12:29:18.817Z,18.10
2022-12-27T12:32:22.565Z,17.80
2022-12-27T12:35:07.626Z,18.40
2022-12-27T12:38:03.100Z,18.40
2022-12-27T12:40:51.981Z,18.20
2022-12-27T12:43:41.572Z,18.40
2022-12-27T12:46:27.340Z,18.10
2022-12-27T12:49:19.894Z,18.40
2022-12-27T12:52:19.386Z,19.00
2022-12-27T12:55:15.719Z,18.80
2022-12-27T12:57:53.704Z,18.40
2022-12-27T13:00:47.592Z,18.30
2022-12-27T13:03:40.855Z,18.40
2022-12-27T13:06:19.683Z,18.70
2022-12-27T13:08:56.467Z,18.90
2022-12-27T13:11:43.918Z,19.20
2022-12-27T13:14:28.656Z,19.10
2022-12-27T13:17:08.272Z,19.20
2022-12-27T13:19:52.015Z,19.00
2022-12-27T13:22:32.875Z,18.80
2022-12-27T13:25:16.257Z,19.10
2022-12-27T13:27:55.687Z,18.80
2022-12-27T13:30:29.109Z,19.30
2022-12-27T13:33:16.891Z,18.80
2022-12-27T13:36:01.875Z,18.90
2022-12-27T13:38:41.859Z,18.90
2022-12-27T13:41:30.476Z,19.10
2022-12-27T13:44:19.286Z,19.00
2022-12-27T13:47:39.198Z,19.10
2022-12-27T13:50:34.817Z,19.30
2022-12-27T13:53:30.126Z,19.70
2022-12-27T13:56:35.247Z,19.70
2022-12-27T13:59:11.481Z,18.70
2022-12-27T14:02:10.721Z,18.80
2022-12-27T14:04:59.837Z,18.60
2022-12-27T14:07:51.047Z,19.00
2022-12-27T14:10:32.698Z,18.80
2022-12-27T14:13:02.900Z,17.40
2022-12-27T14:16:01.117Z,17.60
2022-12-27T14:18:43.396Z,16.80
2022-12-27T14:21:36.650Z,16.80
2022-12-27T14:24:21.044Z,17.90
2022-12-27T14:27:39.155Z,18.00
2022-12-27T14:30:33.190Z,17.60
2022-12-27T14:33:39.846Z,18.00
2022-12-27T14:36:42.746Z,18.10
2022-12-27T14:39:48.252Z,18.10
2022-12-27T14:42:34.617Z,17.90
2022-12-27T14:45:35.739Z,17.70
2022-12-27T14:48:43.845Z,17.30
2022-12-27T14:52:12.459Z,16.90
2022-12-27T14:55:13.263Z,16.30
2022-12-27T14:57:52.763Z,16.20
2022-12-27T15:00:23.272Z,16.00
2022-12-27T15:03:19.102Z,16.00
2022-12-27T15:06:04.113Z,16.20
2022-12-27T15:08:50.355Z,16.00
2022-12-27T15:11:50.295Z,18.90
2022-12-27T15:14:37.119Z,15.70
2022-12-27T15:17:18.766Z,15.60
2022-12-27T15:20:17.733Z,15.30
2022-12-27T15:22:58.147Z,15.00
2022-12-27T15:25:37.772Z,14.60
2022-12-27T15:28:15.846Z,14.50
2022-12-27T15:30:51.862Z,14.40
2022-12-27T15:33:30.977Z,14.00
2022-12-27T15:36:05.279Z,14.00
2022-12-27T15:38:45.249Z,13.90
2022-12-27T15:41:38.276Z,13.60
2022-12-27T15:44:40.927Z,13.50
2022-12-27T15:47:47.574Z,13.40
2022-12-27T15:50:36.086Z,13.60
2022-12-27T15:53:35.975Z,13.40
2022-12-27T15:56:34.902Z,13.40
2022-12-27T15:59:36.816Z,13.20
2022-12-27T16:02:38.484Z,13.20
2022-12-27T16:05:13.712Z,13.10
2022-12-27T16:07:48.109Z,13.00
2022-12-27T16:10:50.034Z,13.00
2022-12-27T16:13:42.259Z,12.90
2022-12-27T16:16:58.005Z,12.80
2022-12-27T16:20:14.604Z,12.60
2022-12-27T16:22:45.661Z,12.60
2022-12-27T16:25:30.626Z,12.60
2022-12-27T16:28:04.098Z,12.60
2022-12-27T16:30:44.009Z,12.60
2022-12-27T16:33:35.105Z,12.60
2022-12-27T16:36:06.777Z,12.50
2022-12-27T16:38:36.013Z,12.50
2022-12-27T16:41:16.531Z,12.60
2022-12-27T16:43:54.293Z,12.50
2022-12-27T16:46:55.324Z,12.30
2022-12-27T16:49:48.191Z,12.10
2022-12-27T16:52:34.246Z,12.10
2022-12-27T16:55:20.917Z,12.30
2022-12-27T16:57:51.143Z,11.90
2022-12-27T17:00:44.149Z,11.80
2022-12-27T17:03:33.863Z,11.70
2022-12-27T17:06:34.607Z,11.80
2022-12-27T17:09:52.602Z,11.70
2022-12-27T17:12:46.789Z,11.50
2022-12-27T17:15:15.451Z,11.20
2022-12-27T17:17:46.791Z,11.20
2022-12-27T17:20:19.070Z,10.80
2022-12-27T17:22:49.556Z,10.80
2022-12-27T17:25:22.880Z,10.90
2022-12-27T17:28:04.091Z,10.90
2022-12-27T17:30:44.316Z,11.00
2022-12-27T17:33:40.062Z,10.90
2022-12-27T17:36:41.184Z,10.90
2022-12-27T17:39:24.730Z,11.20
2022-12-27T17:42:16.866Z,11.00
2022-12-27T17:45:02.611Z,10.80
2022-12-27T17:48:23.273Z,10.70
2022-12-27T17:50:54.777Z,10.60
2022-12-27T17:53:42.466Z,10.70
2022-12-27T17:56:36.671Z,10.50
2022-12-27T17:59:08.322Z,10.60
2022-12-27T18:01:42.293Z,10.90
2022-12-27T18:04:20.779Z,11.00
2022-12-27T18:06:49.347Z,11.10
2022-12-27T18:09:36.607Z,11.10
2022-12-27T18:12:12.812Z,11.20
2022-12-27T18:14:42.094Z,11.10
2022-12-27T18:17:28.795Z,11.70
2022-12-27T18:19:57.963Z,11.10
2022-12-27T18:22:26.831Z,10.50
2022-12-27T18:24:55.332Z,10.50
2022-12-27T18:27:27.181Z,10.60
2022-12-27T18:29:55.713Z,10.60
2022-12-27T18:32:25.980Z,10.80
2022-12-27T18:34:58.183Z,11.10
2022-12-27T18:37:27.379Z,11.10
2022-12-27T18:40:00.308Z,11.00
2022-12-27T18:42:34.480Z,11.40
2022-12-27T18:45:06.006Z,11.50
2022-12-27T18:47:39.290Z,11.20
2022-12-27T18:50:17.383Z,10.70
2022-12-27T18:52:51.276Z,10.50
2022-12-27T18:55:27.567Z,10.50
2022-12-27T18:58:06.448Z,10.50
2022-12-27T19:00:48.922Z,10.30
2022-12-27T19:03:19.612Z,10.40
2022-12-27T19:06:13.529Z,10.50
2022-12-27T19:08:48.249Z,10.40
2022-12-27T19:11:22.107Z,10.50
2022-12-27T19:13:55.993Z,10.40
2022-12-27T19:16:26.774Z,10.60
2022-12-27T19:18:57.297Z,10.60
2022-12-27T19:21:33.003Z,10.80
2022-12-27T19:24:36.840Z,10.80
2022-12-27T19:27:23.284Z,10.80
2022-12-27T19:29:54.361Z,10.70
2022-12-27T19:32:27.091Z,10.60
2022-12-27T19:34:59.463Z,10.30
2022-12-27T19:37:29.258Z,10.30
2022-12-27T19:39:59.124Z,10.40
2022-12-27T19:42:29.914Z,10.60
2022-12-27T19:45:00.954Z,10.50
2022-12-27T19:47:29.680Z,10.30
2022-12-27T19:49:58.231Z,10.70
2022-12-27T19:52:29.303Z,10.60
2022-12-27T19:55:03.580Z,10.70
2022-12-27T19:57:32.326Z,10.80
2022-12-27T20:00:05.432Z,10.70
2022-12-27T20:02:37.228Z,10.50
2022-12-27T20:05:06.265Z,10.50
2022-12-27T20:07:34.815Z,10.30
2022-12-27T20:10:03.273Z,10.20
2022-12-27T20:12:31.886Z,10.20
2022-12-27T20:15:02.328Z,10.20
2022-12-27T20:17:32.628Z,10.40
2022-12-27T20:20:01.171Z,10.50
2022-12-27T20:22:29.646Z,10.30
2022-12-27T20:24:58.170Z,10.20
2022-12-27T20:27:26.701Z,10.10
2022-12-27T20:29:55.279Z,10.40
2022-12-27T20:32:25.260Z,10.30
2022-12-27T20:34:53.783Z,10.20
2022-12-27T20:37:24.711Z,10.10
2022-12-27T20:39:53.521Z,10.20
2022-12-27T20:42:24.514Z,10.40
2022-12-27T20:44:53.201Z,10.20
2022-12-27T20:47:21.861Z,10.30
2022-12-27T20:49:51.903Z,10.50
2022-12-27T20:52:24.303Z,10.50
2022-12-27T20:54:55.729Z,10.60
2022-12-27T20:57:24.265Z,10.40
2022-12-27T20:59:53.151Z,10.40
2022-12-27T21:02:21.863Z,10.20
2022-12-27T21:04:54.181Z,10.20
2022-12-27T21:07:22.965Z,10.30
2022-12-27T21:09:51.577Z,10.20
2022-12-27T21:12:20.180Z,10.10
2022-12-27T21:14:50.078Z,9.90
2022-12-27T21:17:18.958Z,10.20
2022-12-27T21:19:47.501Z,10.20
2022-12-27T21:22:17.621Z,10.10
2022-12-27T21:24:46.207Z,10.10
2022-12-27T21:27:14.810Z,10.10
2022-12-27T21:29:43.278Z,9.80
2022-12-27T21:32:11.803Z,9.90
2022-12-27T21:34:41.363Z,9.70
2022-12-27T21:37:13.332Z,9.80
2022-12-27T21:39:43.618Z,9.80
2022-12-27T21:42:12.527Z,9.70
2022-12-27T21:44:41.048Z,9.70
2022-12-27T21:47:09.583Z,9.70
2022-12-27T21:49:40.490Z,9.70
2022-12-27T21:52:09.075Z,9.90
2022-12-27T21:54:37.646Z,9.80
2022-12-27T21:57:07.627Z,9.60
2022-12-27T21:59:36.183Z,9.50
2022-12-27T22:02:04.740Z,9.70
2022-12-27T22:04:33.405Z,9.90
2022-12-27T22:07:01.928Z,10.00
2022-12-27T22:09:30.456Z,10.00
2022-12-27T22:11:59.030Z,9.90
2022-12-27T22:14:33.289Z,9.70
2022-12-27T22:17:05.326Z,9.80
2022-12-27T22:19:33.913Z,9.90
2022-12-27T22:22:02.447Z,10.10
2022-12-27T22:24:31.019Z,10.10
2022-12-27T22:26:59.564Z,10.00
2022-12-27T22:29:34.966Z,9.60
2022-12-27T22:32:03.932Z,9.50
2022-12-27T22:34:32.503Z,9.70
2022-12-27T22:37:01.057Z,9.60
2022-12-27T22:39:29.753Z,9.70
2022-12-27T22:41:58.311Z,9.70
2022-12-27T22:44:28.873Z,9.70
2022-12-27T22:49:47.770Z,9.50
2022-12-27T22:52:16.326Z,9.60
2022-12-27T22:55:05.515Z,9.40
2022-12-27T22:57:33.348Z,9.40
2022-12-27T23:00:04.088Z,9.30
2022-12-27T23:02:34.189Z,9.50
2022-12-27T23:05:02.787Z,9.60
2022-12-27T23:08:06.126Z,9.50
2022-12-27T23:10:19.862Z,9.60
2022-12-27T23:12:48.444Z,9.90
2022-12-27T23:15:18.518Z,9.80
2022-12-27T23:17:49.185Z,9.60
2022-12-27T23:20:17.906Z,9.40
2022-12-27T23:22:46.411Z,9.60
2022-12-27T23:25:15.098Z,9.90
2022-12-27T23:27:43.616Z,10.00
2022-12-27T23:30:13.784Z,9.90
2022-12-27T23:32:43.786Z,10.00
2022-12-27T23:35:12.332Z,10.10
2022-12-27T23:37:40.833Z,9.60
2022-12-27T23:40:10.692Z,9.70
2022-12-27T23:42:39.277Z,9.60
2022-12-27T23:45:08.764Z,9.80
2022-12-27T23:47:37.286Z,10.00
2022-12-27T23:50:08.219Z,10.00
2022-12-27T23:52:36.745Z,10.10
2022-12-27T23:55:06.426Z,10.20
2022-12-27T23:57:34.959Z,9.80
